sensor_id;sensor_type;location;lat;lon;timestamp;temperature;humidity
43143;DHT22;28750;59.842;17.584;2022-08-16T00:00:20;19.30;99.90
43143;DHT22;28750;59.842;17.584;2022-08-16T00:02:48;19.30;99.90
43143;DHT22;28750;59.842;17.584;2022-08-16T00:05:15;19.20;99.90
43143;DHT22;28750;59.842;17.584;2022-08-16T00:07:43;19.20;99.90
43143;DHT22;28750;59.842;17.584;2022-08-16T00:10:13;19.10;99.90
43143;DHT22;28750;59.842;17.584;2022-08-16T00:12:41;19.20;99.90
43143;DHT22;28750;59.842;17.584;2022-08-16T00:15:18;19.10;99.90
43143;DHT22;28750;59.842;17.584;2022-08-16T00:17:45;19.20;99.90
43143;DHT22;28750;59.842;17.584;2022-08-16T00:20:12;19.20;99.90
43143;DHT22;28750;59.842;17.584;2022-08-16T00:22:41;19.10;99.90
43143;DHT22;28750;59.842;17.584;2022-08-16T00:25:11;19.20;99.90
43143;DHT22;28750;59.842;17.584;2022-08-16T00:27:39;19.20;99.90
43143;DHT22;28750;59.842;17.584;2022-08-16T00:30:09;19.10;99.90
43143;DHT22;28750;59.842;17.584;2022-08-16T00:32:39;19.10;99.90
43143;DHT22;28750;59.842;17.584;2022-08-16T00:35:10;19.00;99.90
43143;DHT22;28750;59.842;17.584;2022-08-16T00:37:37;19.00;99.90
43143;DHT22;28750;59.842;17.584;2022-08-16T00:40:05;19.00;99.90
43143;DHT22;28750;59.842;17.584;2022-08-16T00:42:32;19.00;99.90
43143;DHT22;28750;59.842;17.584;2022-08-16T00:45:14;19.00;99.90
43143;DHT22;28750;59.842;17.584;2022-08-16T00:47:45;19.00;99.90
43143;DHT22;28750;59.842;17.584;2022-08-16T00:50:13;19.00;99.90
43143;DHT22;28750;59.842;17.584;2022-08-16T00:52:40;19.10;99.90
43143;DHT22;28750;59.842;17.584;2022-08-16T00:55:08;19.20;99.90
43143;DHT22;28750;59.842;17.584;2022-08-16T00:57:35;19.10;99.90
43143;DHT22;28750;59.842;17.584;2022-08-16T01:00:06;19.10;99.90
43143;DHT22;28750;59.842;17.584;2022-08-16T01:02:33;19.00;99.90
43143;DHT22;28750;59.842;17.584;2022-08-16T01:05:00;19.00;99.90
43143;DHT22;28750;59.842;17.584;2022-08-16T01:07:28;19.00;99.90
43143;DHT22;28750;59.842;17.584;2022-08-16T01:09:55;19.00;99.90
43143;DHT22;28750;59.842;17.584;2022-08-16T01:12:23;19.00;99.90
43143;DHT22;28750;59.842;17.584;2022-08-16T01:14:53;19.00;99.90
43143;DHT22;28750;59.842;17.584;2022-08-16T01:17:22;19.10;99.90
43143;DHT22;28750;59.842;17.584;2022-08-16T01:19:53;19.20;99.90
43143;DHT22;28750;59.842;17.584;2022-08-16T01:22:49;19.20;99.90
43143;DHT22;28750;59.842;17.584;2022-08-16T01:25:24;19.10;99.90
43143;DHT22;28750;59.842;17.584;2022-08-16T01:27:55;19.10;99.90
43143;DHT22;28750;59.842;17.584;2022-08-16T01:30:29;19.10;99.90
43143;DHT22;28750;59.842;17.584;2022-08-16T01:33:01;19.10;99.90
43143;DHT22;28750;59.842;17.584;2022-08-16T01:35:47;19.00;99.90
43143;DHT22;28750;59.842;17.584;2022-08-16T01:38:23;19.00;99.90
43143;DHT22;28750;59.842;17.584;2022-08-16T01:40:54;18.90;99.90
43143;DHT22;28750;59.842;17.584;2022-08-16T01:43:23;18.90;99.90
43143;DHT22;28750;59.842;17.584;2022-08-16T01:45:55;18.80;99.90
43143;DHT22;28750;59.842;17.584;2022-08-16T01:48:27;18.70;99.90
43143;DHT22;28750;59.842;17.584;2022-08-16T01:50:55;18.80;99.90
43143;DHT22;28750;59.842;17.584;2022-08-16T01:53:23;18.80;99.90
43143;DHT22;28750;59.842;17.584;2022-08-16T01:55:51;18.70;99.90
43143;DHT22;28750;59.842;17.584;2022-08-16T01:58:20;18.60;99.90
43143;DHT22;28750;59.842;17.584;2022-08-16T02:00:47;18.60;99.90
43143;DHT22;28750;59.842;17.584;2022-08-16T02:03:14;18.60;99.90
43143;DHT22;28750;59.842;17.584;2022-08-16T02:05:41;18.60;99.90
43143;DHT22;28750;59.842;17.584;2022-08-16T02:08:08;18.60;99.90
43143;DHT22;28750;59.842;17.584;2022-08-16T02:10:37;18.50;99.90
43143;DHT22;28750;59.842;17.584;2022-08-16T02:13:06;18.60;99.90
43143;DHT22;28750;59.842;17.584;2022-08-16T02:15:35;18.60;99.90
43143;DHT22;28750;59.842;17.584;2022-08-16T02:18:04;18.50;99.90
43143;DHT22;28750;59.842;17.584;2022-08-16T02:20:34;18.60;99.90
43143;DHT22;28750;59.842;17.584;2022-08-16T02:23:02;18.60;99.90
43143;DHT22;28750;59.842;17.584;2022-08-16T02:25:29;18.80;99.90
43143;DHT22;28750;59.842;17.584;2022-08-16T02:27:56;18.70;99.90
43143;DHT22;28750;59.842;17.584;2022-08-16T02:30:26;18.60;99.90
43143;DHT22;28750;59.842;17.584;2022-08-16T02:32:53;18.60;99.90
43143;DHT22;28750;59.842;17.584;2022-08-16T02:35:21;18.60;99.90
43143;DHT22;28750;59.842;17.584;2022-08-16T02:37:49;18.50;99.90
43143;DHT22;28750;59.842;17.584;2022-08-16T02:40:17;18.60;99.90
43143;DHT22;28750;59.842;17.584;2022-08-16T02:42:45;18.50;99.90
43143;DHT22;28750;59.842;17.584;2022-08-16T02:45:13;18.60;99.90
43143;DHT22;28750;59.842;17.584;2022-08-16T02:47:40;18.60;99.90
43143;DHT22;28750;59.842;17.584;2022-08-16T02:50:07;18.70;99.90
43143;DHT22;28750;59.842;17.584;2022-08-16T02:52:34;18.70;99.90
43143;DHT22;28750;59.842;17.584;2022-08-16T02:55:02;18.70;99.90
43143;DHT22;28750;59.842;17.584;2022-08-16T02:57:29;18.70;99.90
43143;DHT22;28750;59.842;17.584;2022-08-16T02:59:57;18.60;99.90
43143;DHT22;28750;59.842;17.584;2022-08-16T03:02:24;18.60;99.90
43143;DHT22;28750;59.842;17.584;2022-08-16T03:04:52;18.60;99.90
43143;DHT22;28750;59.842;17.584;2022-08-16T03:07:19;18.60;99.90
43143;DHT22;28750;59.842;17.584;2022-08-16T03:09:46;18.60;99.90
43143;DHT22;28750;59.842;17.584;2022-08-16T03:12:13;18.60;99.90
43143;DHT22;28750;59.842;17.584;2022-08-16T03:14:40;18.70;99.90
43143;DHT22;28750;59.842;17.584;2022-08-16T03:17:07;18.60;99.90
43143;DHT22;28750;59.842;17.584;2022-08-16T03:19:34;18.60;99.90
43143;DHT22;28750;59.842;17.584;2022-08-16T03:22:01;18.60;99.90
43143;DHT22;28750;59.842;17.584;2022-08-16T03:24:29;18.60;99.90
43143;DHT22;28750;59.842;17.584;2022-08-16T03:27:00;18.60;99.90
43143;DHT22;28750;59.842;17.584;2022-08-16T03:29:30;18.70;99.90
43143;DHT22;28750;59.842;17.584;2022-08-16T03:31:58;18.60;99.90
43143;DHT22;28750;59.842;17.584;2022-08-16T03:34:26;18.70;99.90
43143;DHT22;28750;59.842;17.584;2022-08-16T03:36:53;18.60;99.90
43143;DHT22;28750;59.842;17.584;2022-08-16T03:39:21;18.70;99.90
43143;DHT22;28750;59.842;17.584;2022-08-16T03:41:48;18.70;99.90
43143;DHT22;28750;59.842;17.584;2022-08-16T03:44:15;18.60;99.90
43143;DHT22;28750;59.842;17.584;2022-08-16T03:46:42;18.60;99.90
43143;DHT22;28750;59.842;17.584;2022-08-16T03:49:10;18.60;99.90
43143;DHT22;28750;59.842;17.584;2022-08-16T03:51:41;18.70;99.90
43143;DHT22;28750;59.842;17.584;2022-08-16T03:54:08;18.70;99.90
43143;DHT22;28750;59.842;17.584;2022-08-16T03:56:35;18.70;99.90
43143;DHT22;28750;59.842;17.584;2022-08-16T03:59:02;18.70;99.90
43143;DHT22;28750;59.842;17.584;2022-08-16T04:01:29;18.70;99.90
43143;DHT22;28750;59.842;17.584;2022-08-16T04:03:56;18.80;99.90
43143;DHT22;28750;59.842;17.584;2022-08-16T04:06:23;18.90;99.90
43143;DHT22;28750;59.842;17.584;2022-08-16T04:08:50;18.90;99.90
43143;DHT22;28750;59.842;17.584;2022-08-16T04:11:18;19.00;99.90
43143;DHT22;28750;59.842;17.584;2022-08-16T04:13:45;19.20;99.90
43143;DHT22;28750;59.842;17.584;2022-08-16T04:16:12;19.20;99.90
43143;DHT22;28750;59.842;17.584;2022-08-16T04:18:42;19.50;99.90
43143;DHT22;28750;59.842;17.584;2022-08-16T04:21:09;19.50;99.90
43143;DHT22;28750;59.842;17.584;2022-08-16T04:23:36;19.60;99.90
43143;DHT22;28750;59.842;17.584;2022-08-16T04:26:05;19.70;99.90
43143;DHT22;28750;59.842;17.584;2022-08-16T04:28:33;19.80;99.90
43143;DHT22;28750;59.842;17.584;2022-08-16T04:31:00;19.90;99.90
43143;DHT22;28750;59.842;17.584;2022-08-16T04:33:26;19.90;99.90
43143;DHT22;28750;59.842;17.584;2022-08-16T04:35:55;20.00;99.90
43143;DHT22;28750;59.842;17.584;2022-08-16T04:38:24;20.10;99.90
43143;DHT22;28750;59.842;17.584;2022-08-16T04:40:51;20.10;99.90
43143;DHT22;28750;59.842;17.584;2022-08-16T04:43:18;20.20;99.90
43143;DHT22;28750;59.842;17.584;2022-08-16T04:45:45;20.20;99.90
43143;DHT22;28750;59.842;17.584;2022-08-16T04:48:13;20.30;99.90
43143;DHT22;28750;59.842;17.584;2022-08-16T04:50:40;20.50;99.90
43143;DHT22;28750;59.842;17.584;2022-08-16T04:53:07;20.70;99.90
43143;DHT22;28750;59.842;17.584;2022-08-16T04:55:34;20.70;99.90
43143;DHT22;28750;59.842;17.584;2022-08-16T04:58:01;20.80;99.90
43143;DHT22;28750;59.842;17.584;2022-08-16T05:00:32;20.90;99.90
43143;DHT22;28750;59.842;17.584;2022-08-16T05:03:03;21.00;99.90
43143;DHT22;28750;59.842;17.584;2022-08-16T05:05:31;21.00;99.90
43143;DHT22;28750;59.842;17.584;2022-08-16T05:07:59;21.20;99.90
43143;DHT22;28750;59.842;17.584;2022-08-16T05:10:28;21.20;99.90
43143;DHT22;28750;59.842;17.584;2022-08-16T05:12:56;21.40;99.90
43143;DHT22;28750;59.842;17.584;2022-08-16T05:15:23;21.40;99.90
43143;DHT22;28750;59.842;17.584;2022-08-16T05:17:50;21.60;99.90
43143;DHT22;28750;59.842;17.584;2022-08-16T05:20:17;21.70;99.90
43143;DHT22;28750;59.842;17.584;2022-08-16T05:22:46;21.70;99.90
43143;DHT22;28750;59.842;17.584;2022-08-16T05:25:13;21.60;99.90
43143;DHT22;28750;59.842;17.584;2022-08-16T05:27:42;21.80;99.90
43143;DHT22;28750;59.842;17.584;2022-08-16T05:30:10;22.10;99.90
43143;DHT22;28750;59.842;17.584;2022-08-16T05:32:39;22.10;99.90
43143;DHT22;28750;59.842;17.584;2022-08-16T05:35:08;22.20;99.90
43143;DHT22;28750;59.842;17.584;2022-08-16T05:37:37;22.20;99.90
43143;DHT22;28750;59.842;17.584;2022-08-16T05:40:05;22.50;99.90
43143;DHT22;28750;59.842;17.584;2022-08-16T05:42:33;22.70;99.90
43143;DHT22;28750;59.842;17.584;2022-08-16T05:45:01;22.80;99.90
43143;DHT22;28750;59.842;17.584;2022-08-16T05:47:28;22.60;99.90
43143;DHT22;28750;59.842;17.584;2022-08-16T05:49:55;22.80;99.90
43143;DHT22;28750;59.842;17.584;2022-08-16T05:52:22;22.90;99.90
43143;DHT22;28750;59.842;17.584;2022-08-16T05:54:49;22.70;99.90
43143;DHT22;28750;59.842;17.584;2022-08-16T05:57:17;22.70;99.90
43143;DHT22;28750;59.842;17.584;2022-08-16T05:59:45;22.80;99.90
43143;DHT22;28750;59.842;17.584;2022-08-16T06:02:13;22.90;99.90
43143;DHT22;28750;59.842;17.584;2022-08-16T06:04:40;22.80;99.90
43143;DHT22;28750;59.842;17.584;2022-08-16T06:07:08;22.90;99.90
43143;DHT22;28750;59.842;17.584;2022-08-16T06:09:35;22.80;99.90
43143;DHT22;28750;59.842;17.584;2022-08-16T06:12:03;22.80;99.90
43143;DHT22;28750;59.842;17.584;2022-08-16T06:14:31;23.00;99.90
43143;DHT22;28750;59.842;17.584;2022-08-16T06:16:58;23.00;99.90
43143;DHT22;28750;59.842;17.584;2022-08-16T06:19:25;22.90;99.90
43143;DHT22;28750;59.842;17.584;2022-08-16T06:21:52;23.00;99.90
43143;DHT22;28750;59.842;17.584;2022-08-16T06:24:19;23.00;99.90
43143;DHT22;28750;59.842;17.584;2022-08-16T06:26:46;23.00;99.90
43143;DHT22;28750;59.842;17.584;2022-08-16T06:29:12;23.10;99.90
43143;DHT22;28750;59.842;17.584;2022-08-16T06:31:39;23.20;99.90
43143;DHT22;28750;59.842;17.584;2022-08-16T06:34:06;23.20;99.90
43143;DHT22;28750;59.842;17.584;2022-08-16T06:36:34;23.30;99.90
43143;DHT22;28750;59.842;17.584;2022-08-16T06:39:01;23.40;99.90
43143;DHT22;28750;59.842;17.584;2022-08-16T06:41:28;23.40;99.90
43143;DHT22;28750;59.842;17.584;2022-08-16T06:43:55;23.50;99.90
43143;DHT22;28750;59.842;17.584;2022-08-16T06:46:26;23.50;99.90
43143;DHT22;28750;59.842;17.584;2022-08-16T06:48:53;23.50;99.90
43143;DHT22;28750;59.842;17.584;2022-08-16T06:51:20;23.60;99.90
43143;DHT22;28750;59.842;17.584;2022-08-16T06:53:47;23.70;99.90
43143;DHT22;28750;59.842;17.584;2022-08-16T06:56:14;23.80;99.90
43143;DHT22;28750;59.842;17.584;2022-08-16T06:58:41;23.90;99.90
43143;DHT22;28750;59.842;17.584;2022-08-16T07:01:08;24.00;99.90
43143;DHT22;28750;59.842;17.584;2022-08-16T07:03:35;24.00;99.90
43143;DHT22;28750;59.842;17.584;2022-08-16T07:06:03;24.00;64.10
43143;DHT22;28750;59.842;17.584;2022-08-16T07:08:30;24.20;47.10
43143;DHT22;28750;59.842;17.584;2022-08-16T07:10:57;24.30;67.50
43143;DHT22;28750;59.842;17.584;2022-08-16T07:13:24;24.40;8.60
43143;DHT22;28750;59.842;17.584;2022-08-16T07:15:52;24.40;46.50
43143;DHT22;28750;59.842;17.584;2022-08-16T07:18:20;24.60;1.00
43143;DHT22;28750;59.842;17.584;2022-08-16T07:20:47;24.70;10.40
43143;DHT22;28750;59.842;17.584;2022-08-16T07:23:16;24.90;1.00
43143;DHT22;28750;59.842;17.584;2022-08-16T07:25:43;25.10;1.00
43143;DHT22;28750;59.842;17.584;2022-08-16T07:28:13;25.30;1.00
43143;DHT22;28750;59.842;17.584;2022-08-16T07:30:42;25.50;1.00
43143;DHT22;28750;59.842;17.584;2022-08-16T07:33:10;25.80;99.90
43143;DHT22;28750;59.842;17.584;2022-08-16T07:35:40;26.10;99.90
43143;DHT22;28750;59.842;17.584;2022-08-16T07:38:07;26.40;99.90
43143;DHT22;28750;59.842;17.584;2022-08-16T07:40:35;26.70;99.90
43143;DHT22;28750;59.842;17.584;2022-08-16T07:43:03;26.80;15.00
43143;DHT22;28750;59.842;17.584;2022-08-16T07:45:31;26.90;71.40
43143;DHT22;28750;59.842;17.584;2022-08-16T07:47:58;27.30;1.00
43143;DHT22;28750;59.842;17.584;2022-08-16T07:50:26;27.60;53.00
43143;DHT22;28750;59.842;17.584;2022-08-16T07:52:53;27.70;99.90
43143;DHT22;28750;59.842;17.584;2022-08-16T07:55:20;27.80;99.90
43143;DHT22;28750;59.842;17.584;2022-08-16T07:57:47;27.70;99.90
43143;DHT22;28750;59.842;17.584;2022-08-16T08:00:14;27.10;99.90
43143;DHT22;28750;59.842;17.584;2022-08-16T08:02:42;26.90;1.00
43143;DHT22;28750;59.842;17.584;2022-08-16T08:05:11;26.70;99.90
43143;DHT22;28750;59.842;17.584;2022-08-16T08:07:38;26.70;99.90
43143;DHT22;28750;59.842;17.584;2022-08-16T08:10:05;26.60;99.90
43143;DHT22;28750;59.842;17.584;2022-08-16T08:12:32;26.70;99.90
43143;DHT22;28750;59.842;17.584;2022-08-16T08:14:59;26.90;99.90
43143;DHT22;28750;59.842;17.584;2022-08-16T08:17:27;27.10;99.90
43143;DHT22;28750;59.842;17.584;2022-08-16T08:19:54;27.10;99.90
43143;DHT22;28750;59.842;17.584;2022-08-16T08:22:21;27.10;99.90
43143;DHT22;28750;59.842;17.584;2022-08-16T08:24:48;27.00;99.90
43143;DHT22;28750;59.842;17.584;2022-08-16T08:27:16;26.90;99.90
43143;DHT22;28750;59.842;17.584;2022-08-16T08:29:43;26.90;99.90
43143;DHT22;28750;59.842;17.584;2022-08-16T08:32:10;26.90;99.90
43143;DHT22;28750;59.842;17.584;2022-08-16T08:34:37;27.00;99.90
43143;DHT22;28750;59.842;17.584;2022-08-16T08:37:04;27.10;1.00
43143;DHT22;28750;59.842;17.584;2022-08-16T08:39:31;27.30;99.90
43143;DHT22;28750;59.842;17.584;2022-08-16T08:41:59;27.40;72.70
43143;DHT22;28750;59.842;17.584;2022-08-16T08:44:27;27.50;99.90
43143;DHT22;28750;59.842;17.584;2022-08-16T08:46:53;27.80;99.90
43143;DHT22;28750;59.842;17.584;2022-08-16T08:49:23;27.70;1.00
43143;DHT22;28750;59.842;17.584;2022-08-16T08:51:50;27.90;99.90
43143;DHT22;28750;59.842;17.584;2022-08-16T08:54:17;27.80;1.00
43143;DHT22;28750;59.842;17.584;2022-08-16T08:56:44;28.10;17.30
43143;DHT22;28750;59.842;17.584;2022-08-16T08:59:11;28.20;49.60
43143;DHT22;28750;59.842;17.584;2022-08-16T09:01:40;28.90;99.90
43143;DHT22;28750;59.842;17.584;2022-08-16T09:04:07;29.00;63.30
43143;DHT22;28750;59.842;17.584;2022-08-16T09:06:35;28.90;99.90
43143;DHT22;28750;59.842;17.584;2022-08-16T09:09:04;28.60;99.90
43143;DHT22;28750;59.842;17.584;2022-08-16T09:11:32;28.60;1.00
43143;DHT22;28750;59.842;17.584;2022-08-16T09:14:00;28.40;99.90
43143;DHT22;28750;59.842;17.584;2022-08-16T09:16:27;28.60;1.00
43143;DHT22;28750;59.842;17.584;2022-08-16T09:18:54;28.40;33.90
43143;DHT22;28750;59.842;17.584;2022-08-16T09:21:21;28.70;1.00
43143;DHT22;28750;59.842;17.584;2022-08-16T09:23:48;28.90;62.90
43143;DHT22;28750;59.842;17.584;2022-08-16T09:26:15;29.60;99.90
43143;DHT22;28750;59.842;17.584;2022-08-16T09:28:43;29.60;99.90
43143;DHT22;28750;59.842;17.584;2022-08-16T09:31:14;29.90;99.90
43143;DHT22;28750;59.842;17.584;2022-08-16T09:33:42;30.00;99.90
43143;DHT22;28750;59.842;17.584;2022-08-16T09:36:10;30.00;99.90
43143;DHT22;28750;59.842;17.584;2022-08-16T09:38:37;30.10;99.90
43143;DHT22;28750;59.842;17.584;2022-08-16T09:41:07;30.10;59.00
43143;DHT22;28750;59.842;17.584;2022-08-16T09:43:35;29.60;92.50
43143;DHT22;28750;59.842;17.584;2022-08-16T09:46:04;29.50;99.90
43143;DHT22;28750;59.842;17.584;2022-08-16T09:48:32;29.70;99.90
43143;DHT22;28750;59.842;17.584;2022-08-16T09:50:59;29.80;99.90
43143;DHT22;28750;59.842;17.584;2022-08-16T09:53:26;30.20;99.90
43143;DHT22;28750;59.842;17.584;2022-08-16T09:55:56;30.00;99.90
43143;DHT22;28750;59.842;17.584;2022-08-16T09:58:25;29.80;82.90
43143;DHT22;28750;59.842;17.584;2022-08-16T10:00:53;29.30;99.90
43143;DHT22;28750;59.842;17.584;2022-08-16T10:03:20;28.80;99.90
43143;DHT22;28750;59.842;17.584;2022-08-16T10:05:48;28.40;99.90
43143;DHT22;28750;59.842;17.584;2022-08-16T10:08:15;28.10;99.30
43143;DHT22;28750;59.842;17.584;2022-08-16T10:10:43;27.90;90.40
43143;DHT22;28750;59.842;17.584;2022-08-16T10:13:31;27.60;71.20
43143;DHT22;28750;59.842;17.584;2022-08-16T10:15:59;27.20;97.00
43143;DHT22;28750;59.842;17.584;2022-08-16T10:18:28;26.90;99.90
43143;DHT22;28750;59.842;17.584;2022-08-16T10:20:56;27.00;99.90
43143;DHT22;28750;59.842;17.584;2022-08-16T10:23:25;27.10;99.90
43143;DHT22;28750;59.842;17.584;2022-08-16T10:25:54;27.10;99.90
43143;DHT22;28750;59.842;17.584;2022-08-16T10:28:21;27.30;99.90
43143;DHT22;28750;59.842;17.584;2022-08-16T10:30:48;27.50;99.90
43143;DHT22;28750;59.842;17.584;2022-08-16T10:33:15;27.70;99.90
43143;DHT22;28750;59.842;17.584;2022-08-16T10:35:44;27.70;99.90
43143;DHT22;28750;59.842;17.584;2022-08-16T10:38:12;27.70;99.90
43143;DHT22;28750;59.842;17.584;2022-08-16T10:40:41;27.80;1.00
43143;DHT22;28750;59.842;17.584;2022-08-16T10:43:08;28.30;99.90
43143;DHT22;28750;59.842;17.584;2022-08-16T10:45:36;29.10;99.90
43143;DHT22;28750;59.842;17.584;2022-08-16T10:48:04;29.40;99.90
43143;DHT22;28750;59.842;17.584;2022-08-16T10:50:32;28.80;99.90
43143;DHT22;28750;59.842;17.584;2022-08-16T10:53:01;28.10;99.90
43143;DHT22;28750;59.842;17.584;2022-08-16T10:55:37;27.70;99.90
43143;DHT22;28750;59.842;17.584;2022-08-16T10:58:06;27.40;99.90
43143;DHT22;28750;59.842;17.584;2022-08-16T11:00:35;27.30;99.90
43143;DHT22;28750;59.842;17.584;2022-08-16T11:03:04;27.20;99.90
43143;DHT22;28750;59.842;17.584;2022-08-16T11:05:33;27.10;99.90
43143;DHT22;28750;59.842;17.584;2022-08-16T11:08:01;27.00;99.90
43143;DHT22;28750;59.842;17.584;2022-08-16T11:10:34;27.00;99.90
43143;DHT22;28750;59.842;17.584;2022-08-16T11:13:01;26.90;99.90
43143;DHT22;28750;59.842;17.584;2022-08-16T11:15:29;26.80;99.90
43143;DHT22;28750;59.842;17.584;2022-08-16T11:17:55;26.70;99.90
43143;DHT22;28750;59.842;17.584;2022-08-16T11:20:23;26.70;99.90
43143;DHT22;28750;59.842;17.584;2022-08-16T11:22:50;26.90;99.90
43143;DHT22;28750;59.842;17.584;2022-08-16T11:25:20;26.90;99.90
43143;DHT22;28750;59.842;17.584;2022-08-16T11:27:48;27.00;99.90
43143;DHT22;28750;59.842;17.584;2022-08-16T11:30:15;27.30;99.90
43143;DHT22;28750;59.842;17.584;2022-08-16T11:32:44;27.60;99.90
43143;DHT22;28750;59.842;17.584;2022-08-16T11:35:13;28.70;99.90
43143;DHT22;28750;59.842;17.584;2022-08-16T11:37:53;30.50;99.90
43143;DHT22;28750;59.842;17.584;2022-08-16T11:40:22;31.20;48.30
43143;DHT22;28750;59.842;17.584;2022-08-16T11:42:51;30.60;1.00
43143;DHT22;28750;59.842;17.584;2022-08-16T11:45:18;30.90;1.00
43143;DHT22;28750;59.842;17.584;2022-08-16T11:47:45;31.10;1.00
43143;DHT22;28750;59.842;17.584;2022-08-16T11:50:13;31.50;1.00
43143;DHT22;28750;59.842;17.584;2022-08-16T11:52:40;31.50;1.00
43143;DHT22;28750;59.842;17.584;2022-08-16T11:55:09;31.70;99.90
43143;DHT22;28750;59.842;17.584;2022-08-16T11:57:37;31.60;99.90
43143;DHT22;28750;59.842;17.584;2022-08-16T12:00:09;32.20;1.00
43143;DHT22;28750;59.842;17.584;2022-08-16T12:02:37;32.70;1.00
43143;DHT22;28750;59.842;17.584;2022-08-16T12:05:06;32.80;99.90
43143;DHT22;28750;59.842;17.584;2022-08-16T12:07:34;32.10;99.90
43143;DHT22;28750;59.842;17.584;2022-08-16T12:10:09;32.40;99.90
43143;DHT22;28750;59.842;17.584;2022-08-16T12:12:36;32.90;99.90
43143;DHT22;28750;59.842;17.584;2022-08-16T12:15:04;32.20;99.90
43143;DHT22;28750;59.842;17.584;2022-08-16T12:17:31;32.00;99.90
43143;DHT22;28750;59.842;17.584;2022-08-16T12:20:05;32.30;99.90
43143;DHT22;28750;59.842;17.584;2022-08-16T12:22:34;32.40;99.90
43143;DHT22;28750;59.842;17.584;2022-08-16T12:25:03;32.20;99.90
43143;DHT22;28750;59.842;17.584;2022-08-16T12:27:30;32.20;99.90
43143;DHT22;28750;59.842;17.584;2022-08-16T12:29:58;32.70;99.90
43143;DHT22;28750;59.842;17.584;2022-08-16T12:32:25;32.30;99.90
43143;DHT22;28750;59.842;17.584;2022-08-16T12:34:52;32.00;99.90
43143;DHT22;28750;59.842;17.584;2022-08-16T12:37:20;31.80;99.90
43143;DHT22;28750;59.842;17.584;2022-08-16T12:39:47;31.40;99.90
43143;DHT22;28750;59.842;17.584;2022-08-16T12:42:14;31.70;99.90
43143;DHT22;28750;59.842;17.584;2022-08-16T12:44:44;31.80;99.90
43143;DHT22;28750;59.842;17.584;2022-08-16T12:47:11;31.70;99.90
43143;DHT22;28750;59.842;17.584;2022-08-16T12:49:55;31.70;99.90
43143;DHT22;28750;59.842;17.584;2022-08-16T12:52:22;31.30;99.90
43143;DHT22;28750;59.842;17.584;2022-08-16T12:54:49;31.20;99.90
43143;DHT22;28750;59.842;17.584;2022-08-16T12:57:16;31.80;99.90
43143;DHT22;28750;59.842;17.584;2022-08-16T12:59:43;31.70;99.90
43143;DHT22;28750;59.842;17.584;2022-08-16T13:02:10;31.30;99.90
43143;DHT22;28750;59.842;17.584;2022-08-16T13:04:37;31.60;99.90
43143;DHT22;28750;59.842;17.584;2022-08-16T13:07:04;31.10;99.90
43143;DHT22;28750;59.842;17.584;2022-08-16T13:09:31;30.60;99.90
43143;DHT22;28750;59.842;17.584;2022-08-16T13:12:06;30.80;1.00
43143;DHT22;28750;59.842;17.584;2022-08-16T13:14:44;31.10;99.90
43143;DHT22;28750;59.842;17.584;2022-08-16T13:17:14;30.70;99.90
43143;DHT22;28750;59.842;17.584;2022-08-16T13:19:42;30.10;99.90
43143;DHT22;28750;59.842;17.584;2022-08-16T13:22:09;30.30;99.90
43143;DHT22;28750;59.842;17.584;2022-08-16T13:24:36;30.00;99.90
43143;DHT22;28750;59.842;17.584;2022-08-16T13:27:03;30.60;99.90
43143;DHT22;28750;59.842;17.584;2022-08-16T13:29:30;30.60;1.00
43143;DHT22;28750;59.842;17.584;2022-08-16T13:31:57;30.60;99.90
43143;DHT22;28750;59.842;17.584;2022-08-16T13:34:24;30.50;99.90
43143;DHT22;28750;59.842;17.584;2022-08-16T13:36:51;30.50;1.00
43143;DHT22;28750;59.842;17.584;2022-08-16T13:39:18;30.20;99.90
43143;DHT22;28750;59.842;17.584;2022-08-16T13:41:45;30.20;1.00
43143;DHT22;28750;59.842;17.584;2022-08-16T13:44:12;29.60;1.00
43143;DHT22;28750;59.842;17.584;2022-08-16T13:46:39;29.30;1.00
43143;DHT22;28750;59.842;17.584;2022-08-16T13:49:07;29.10;1.00
43143;DHT22;28750;59.842;17.584;2022-08-16T13:51:34;28.80;1.00
43143;DHT22;28750;59.842;17.584;2022-08-16T13:54:01;28.60;1.00
43143;DHT22;28750;59.842;17.584;2022-08-16T13:56:30;28.30;1.00
43143;DHT22;28750;59.842;17.584;2022-08-16T13:58:58;28.30;1.00
43143;DHT22;28750;59.842;17.584;2022-08-16T14:01:25;28.30;1.00
43143;DHT22;28750;59.842;17.584;2022-08-16T14:03:53;28.30;1.00
43143;DHT22;28750;59.842;17.584;2022-08-16T14:06:20;28.20;1.00
43143;DHT22;28750;59.842;17.584;2022-08-16T14:08:47;28.30;1.00
43143;DHT22;28750;59.842;17.584;2022-08-16T14:11:14;28.60;1.00
43143;DHT22;28750;59.842;17.584;2022-08-16T14:13:42;28.90;3.00
43143;DHT22;28750;59.842;17.584;2022-08-16T14:16:10;28.70;1.00
43143;DHT22;28750;59.842;17.584;2022-08-16T14:18:38;28.60;1.00
43143;DHT22;28750;59.842;17.584;2022-08-16T14:21:05;28.60;25.40
43143;DHT22;28750;59.842;17.584;2022-08-16T14:23:33;28.20;13.90
43143;DHT22;28750;59.842;17.584;2022-08-16T14:26:00;28.10;95.00
43143;DHT22;28750;59.842;17.584;2022-08-16T14:28:27;28.20;21.30
43143;DHT22;28750;59.842;17.584;2022-08-16T14:30:54;28.00;34.10
43143;DHT22;28750;59.842;17.584;2022-08-16T14:33:21;28.00;51.20
43143;DHT22;28750;59.842;17.584;2022-08-16T14:35:48;28.20;99.90
43143;DHT22;28750;59.842;17.584;2022-08-16T14:38:16;28.00;99.90
43143;DHT22;28750;59.842;17.584;2022-08-16T14:40:45;27.80;99.90
43143;DHT22;28750;59.842;17.584;2022-08-16T14:43:12;27.60;99.90
43143;DHT22;28750;59.842;17.584;2022-08-16T14:45:39;27.50;99.90
43143;DHT22;28750;59.842;17.584;2022-08-16T14:48:05;27.80;99.90
43143;DHT22;28750;59.842;17.584;2022-08-16T14:50:33;28.10;99.80
43143;DHT22;28750;59.842;17.584;2022-08-16T14:53:04;28.10;99.90
43143;DHT22;28750;59.842;17.584;2022-08-16T14:55:33;28.10;99.90
43143;DHT22;28750;59.842;17.584;2022-08-16T14:58:01;28.30;99.90
43143;DHT22;28750;59.842;17.584;2022-08-16T15:00:29;28.30;99.90
43143;DHT22;28750;59.842;17.584;2022-08-16T15:02:58;28.20;99.90
43143;DHT22;28750;59.842;17.584;2022-08-16T15:05:26;28.10;99.90
43143;DHT22;28750;59.842;17.584;2022-08-16T15:07:54;28.10;99.90
43143;DHT22;28750;59.842;17.584;2022-08-16T15:10:22;27.90;99.90
43143;DHT22;28750;59.842;17.584;2022-08-16T15:12:51;27.80;99.90
43143;DHT22;28750;59.842;17.584;2022-08-16T15:15:21;27.70;99.90
43143;DHT22;28750;59.842;17.584;2022-08-16T15:17:49;27.60;99.90
43143;DHT22;28750;59.842;17.584;2022-08-16T15:20:16;27.60;99.90
43143;DHT22;28750;59.842;17.584;2022-08-16T15:22:46;27.70;99.90